Time;durP1;ratioP1;P1;durP2;ratioP2;P2;SDS_P1;SDS_P2;PMS_P1;PMS_P2;Temp;Humidity;BMP_temperature;BMP_pressure;BME280_temperature;BME280_humidity;BME280_pressure;Samples;Min_cycle;Max_cycle;Signal;HPM_P1;HPM_P2
2023/01/11 10:33:41;;;;;;;1.47;1.10;;;10.30;97.90;;;12.72;55.68;97425.38;5005960;28;20410;-51
2023/01/11 10:43:15;;;;;;;1.00;0.90;;;10.10;99.90;;;13.10;54.84;97411.16;5043580;28;20052;-45
2023/01/11 10:45:52;;;;;;;2.53;1.33;;;10.10;99.90;;;13.19;54.61;97412.72;5042226;28;20504;-48
2023/01/11 10:48:27;;;;;;;5.03;2.03;;;10.10;99.90;;;13.22;54.33;97403.50;5046833;28;20412;-46
2023/01/11 10:51:04;;;;;;;1.70;1.00;;;10.00;99.90;;;13.26;54.57;97404.78;5048184;28;20397;-43
2023/01/11 10:53:42;;;;;;;1.50;1.00;;;10.10;99.90;;;13.30;54.51;97406.97;5041368;28;20042;-45
2023/01/11 10:56:36;;;;;;;2.03;1.00;;;10.10;99.90;;;13.33;54.56;97411.91;5046914;28;20519;-46
2023/01/11 10:59:48;;;;;;;1.00;0.90;;;10.10;99.90;;;13.30;54.42;97416.81;5046842;28;20496;-45
2023/01/11 11:03:06;;;;;;;1.07;0.80;;;10.10;99.90;;;13.27;54.58;97409.97;5048010;28;20052;-44
2023/01/11 11:05:43;;;;;;;1.43;0.90;;;10.10;99.90;;;13.31;54.74;97405.94;5040490;28;20053;-48
2023/01/11 11:08:41;;;;;;;1.90;1.30;;;10.10;99.90;;;13.31;54.56;97405.09;5046229;28;20395;-43
2023/01/11 11:11:15;;;;;;;0.90;0.70;;;10.10;99.90;;;13.32;54.75;97406.78;5046395;28;20056;-46
2023/01/11 11:14:03;;;;;;;1.03;0.80;;;10.10;99.90;;;13.31;54.85;97403.25;5047912;28;20052;-46
2023/01/11 11:16:47;;;;;;;0.70;0.70;;;10.10;99.90;;;13.32;54.99;97396.91;5040372;28;20500;-45
2023/01/11 11:19:28;;;;;;;0.85;0.60;;;10.20;99.90;;;13.36;54.78;97400.88;5047445;28;20484;-44
2023/01/11 11:21:55;;;;;;;1.40;0.80;;;10.20;99.90;;;13.40;54.91;97396.00;5046608;28;20052;-47
2023/01/11 11:24:44;;;;;;;0.90;0.70;;;10.30;99.90;;;13.44;55.26;97394.59;5047298;28;20045;-49
2023/01/11 11:27:40;;;;;;;0.80;0.60;;;10.30;99.90;;;13.47;54.66;97386.19;5062978;28;20502;-44
2023/01/11 11:30:12;;;;;;;0.97;0.77;;;10.40;99.90;;;13.51;55.05;97390.19;5046191;28;20598;-46
2023/01/11 11:32:51;;;;;;;0.80;0.70;;;10.40;99.90;;;13.51;54.95;97376.81;5047517;28;20056;-47
2023/01/11 11:35:37;;;;;;;1.60;0.73;;;10.40;99.90;;;13.55;55.22;97390.59;5045740;28;20049;-47
2023/01/11 11:38:05;;;;;;;0.77;0.60;;;10.40;99.90;;;13.58;55.12;97387.56;5047034;28;20045;-44
2023/01/11 11:40:37;;;;;;;0.50;0.50;;;10.40;99.90;;;13.60;55.13;97382.88;5061596;28;20045;-46
2023/01/11 11:43:23;;;;;;;0.97;0.80;;;10.50;99.90;;;13.48;55.76;97389.72;5046108;28;20041;-45
2023/01/11 11:45:56;;;;;;;1.17;0.70;;;10.50;99.90;;;13.56;55.42;97393.09;5047206;28;20041;-48
2023/01/11 11:48:30;;;;;;;0.63;0.63;;;10.50;99.90;;;13.58;55.50;97387.56;5034197;28;20049;-48
2023/01/11 11:51:02;;;;;;;1.73;0.82;;;10.50;99.90;;;13.60;55.49;97388.22;5033796;28;20041;-48
2023/01/11 11:53:55;;;;;;;1.20;0.70;;;10.50;99.90;;;13.61;55.50;97387.22;5032761;28;20041;-46
2023/01/11 11:56:27;;;;;;;0.60;0.60;;;10.50;99.90;;;13.62;55.39;97383.50;5032384;28;20041;-47
2023/01/11 11:58:57;;;;;;;1.40;0.80;;;10.50;99.90;;;13.66;55.41;97378.63;5033511;28;20507;-44
2023/01/11 12:01:35;;;;;;;0.67;0.63;;;10.50;99.90;;;13.65;55.45;97379.63;5032379;28;20041;-44
2023/01/11 12:04:30;;;;;;;1.50;0.57;;;10.50;99.90;;;13.64;55.40;97376.13;5032613;28;20061;-46
2023/01/11 12:07:18;;;;;;;0.50;0.50;;;10.60;99.90;;;13.70;55.54;97374.53;5033303;28;20527;-48
2023/01/11 12:10:01;;;;;;;0.70;0.67;;;10.60;99.90;;;13.72;55.53;97372.50;5026836;28;20516;-47
2023/01/11 12:12:35;;;;;;;1.40;0.70;;;10.50;99.90;;;13.72;55.80;97367.97;5017062;28;20049;-46
2023/01/11 12:15:18;;;;;;;0.60;0.60;;;10.60;99.90;;;13.73;55.38;97375.00;5033514;28;20523;-45
2023/01/11 12:17:46;;;;;;;0.50;0.50;;;10.50;99.90;;;13.75;55.96;97374.81;5032846;28;20041;-50
2023/01/11 12:20:37;;;;;;;0.77;0.73;;;10.60;99.90;;;13.75;55.54;97380.16;5031946;28;20048;-45
2023/01/11 12:23:23;;;;;;;0.60;0.50;;;10.60;99.90;;;13.77;55.58;97376.28;5033210;28;20041;-44
2023/01/11 12:27:08;;;;;;;1.77;0.90;;;10.60;99.90;;;13.73;55.54;97385.69;5033316;28;20128;-47
2023/01/11 12:30:07;;;;;;;0.85;0.60;;;10.60;99.90;;;13.70;55.87;97382.56;5023347;28;20049;-44
2023/01/11 12:33:20;;;;;;;1.77;1.27;;;10.50;99.90;;;13.66;56.17;97386.63;5025820;28;20042;-45
2023/01/11 12:36:26;;;;;;;0.87;0.83;;;10.60;99.90;;;13.63;56.19;97387.00;5027590;28;20037;-43
2023/01/11 12:39:25;;;;;;;3.50;1.73;;;10.50;99.90;;;13.61;56.27;97391.72;5028168;28;20049;-45
2023/01/11 12:42:41;;;;;;;3.70;1.97;;;10.50;99.90;;;13.57;56.52;97386.75;5028081;28;20049;-45
2023/01/11 12:46:07;;;;;;;2.27;1.63;;;10.50;99.90;;;13.58;56.49;97383.03;5030096;28;20041;-43
2023/01/11 12:49:03;;;;;;;1.33;1.00;;;10.50;99.90;;;13.53;56.80;97390.81;5024740;28;20056;-46
2023/01/11 12:52:05;;;;;;;1.30;1.07;;;10.40;99.90;;;13.55;56.72;97383.44;5031320;28;20044;-43
2023/01/11 12:55:05;;;;;;;1.33;0.80;;;10.40;99.90;;;13.54;57.35;97381.75;5024057;28;20037;-46
2023/01/11 12:57:59;;;;;;;1.00;0.60;;;10.40;99.90;;;13.56;57.22;97386.94;5024269;28;20040;-47
2023/01/11 13:01:05;;;;;;;1.58;0.75;;;10.40;99.90;;;13.54;56.99;97394.31;5031412;28;20045;-47
2023/01/11 13:04:28;;;;;;;1.20;1.00;;;10.40;99.90;;;13.51;57.15;97392.84;5024159;28;20037;-49
2023/01/11 13:07:10;;;;;;;0.70;0.70;;;10.30;99.90;;;13.48;57.43;97393.22;5027827;28;20046;-45
2023/01/11 13:09:50;;;;;;;0.60;0.60;;;10.30;99.90;;;13.49;57.26;97391.34;5030540;28;20057;-47
2023/01/11 13:12:41;;;;;;;1.53;0.97;;;10.30;99.90;;;13.48;57.19;97403.91;5032017;28;20052;-44
2023/01/11 13:15:11;;;;;;;0.53;0.53;;;10.40;99.90;;;13.50;57.58;97401.06;5024474;28;20497;-45
2023/01/11 13:18:11;;;;;;;1.07;0.97;;;10.30;99.90;;;13.43;57.49;97403.63;5031249;28;20041;-49
2023/01/11 13:21:09;;;;;;;0.50;0.50;;;10.30;99.90;;;13.41;57.73;97396.81;5031069;28;20048;-44
2023/01/11 13:23:54;;;;;;;1.07;0.90;;;10.30;99.90;;;13.47;57.50;97410.25;5030196;28;20041;-50
2023/01/11 13:26:33;;;;;;;0.83;0.63;;;10.30;99.90;;;13.46;57.66;97416.63;5030833;28;20064;-49
2023/01/11 13:29:55;;;;;;;1.17;0.70;;;10.30;99.90;;;13.43;57.71;97416.16;5030521;28;20053;-44
2023/01/11 13:32:36;;;;;;;1.33;0.70;;;10.40;99.90;;;13.35;57.93;97425.13;5028820;28;20057;-46
2023/01/11 13:35:05;;;;;;;0.90;0.90;;;10.30;99.90;;;13.29;58.40;97413.28;5030291;28;20053;-49
2023/01/11 13:37:54;;;;;;;1.77;0.70;;;10.30;99.90;;;13.22;58.30;97427.56;5020149;28;20519;-46
2023/01/11 13:40:31;;;;;;;1.17;0.90;;;10.20;99.90;;;13.13;58.70;97434.84;5031530;28;20045;-47
2023/01/11 13:43:05;;;;;;;0.87;0.77;;;10.10;99.90;;;12.74;60.19;97442.03;5002221;28;20042;-48
2023/01/11 13:45:42;;;;;;;1.57;0.90;;;9.90;99.90;;;12.88;59.90;97440.41;5029698;28;20507;-46
2023/01/11 13:48:23;;;;;;;0.97;0.50;;;9.90;99.90;;;12.75;59.98;97448.19;5030493;28;20049;-49
2023/01/11 13:51:37;;;;;;;0.63;0.60;;;9.90;99.90;;;12.55;60.47;97450.53;5029530;28;20511;-48
2023/01/11 13:54:32;;;;;;;2.10;1.30;;;9.80;99.90;;;12.56;60.92;97457.53;5026578;28;20049;-46
2023/01/11 13:57:06;;;;;;;2.10;1.07;;;9.70;99.90;;;12.61;59.99;97457.84;5022998;28;20485;-46
2023/01/11 13:59:48;;;;;;;1.33;0.90;;;9.70;99.90;;;12.64;60.49;97460.16;5020341;28;20042;-43
2023/01/11 14:02:53;;;;;;;1.33;1.00;;;9.70;99.90;;;12.72;60.15;97459.25;5039444;28;20060;-44
2023/01/11 14:05:22;;;;;;;0.60;0.60;;;9.80;99.90;;;12.85;59.77;97467.47;5024801;28;20056;-46
2023/01/11 14:08:29;;;;;;;1.20;0.80;;;9.90;99.90;;;12.85;59.75;97470.16;5025949;28;20045;-46
2023/01/11 14:11:32;;;;;;;1.23;0.70;;;9.90;99.90;;;12.93;59.43;97478.13;5004877;28;20045;-44
2023/01/11 14:14:46;;;;;;;1.00;0.80;;;9.90;99.90;;;12.85;59.74;97486.19;5008595;28;20053;-49
2023/01/11 14:17:35;;;;;;;0.90;0.70;;;9.90;99.90;;;12.85;59.93;97482.69;5024189;28;20501;-46
2023/01/11 14:20:25;;;;;;;0.60;0.60;;;9.90;99.90;;;12.92;59.60;97484.47;5022723;28;20057;-46
2023/01/11 14:23:18;;;;;;;1.13;0.90;;;9.90;99.90;;;12.87;59.89;97486.84;5022401;28;20068;-45
2023/01/11 14:26:33;;;;;;;2.87;1.10;;;9.90;99.90;;;12.96;59.76;97500.97;5026289;28;20049;-49
2023/01/11 14:29:29;;;;;;;;;;;9.90;99.90;;;13.07;59.29;97497.88;5026811;28;20416;-50
2023/01/11 14:32:11;;;;;;;1.50;0.90;;;10.00;99.90;;;13.09;59.10;97509.22;5024829;28;20368;-46
2023/01/11 14:35:21;;;;;;;1.67;0.97;;;10.00;99.90;;;12.98;59.49;97523.00;5026576;28;20512;-44
2023/01/11 14:38:13;;;;;;;1.17;0.93;;;9.90;99.90;;;12.91;59.46;97520.22;5025099;28;20072;-47
2023/01/11 14:41:24;;;;;;;1.10;0.80;;;9.90;99.90;;;12.91;59.46;97519.38;5026530;28;20037;-47
2023/01/11 14:44:40;;;;;;;2.13;1.03;;;9.90;99.90;;;12.91;59.20;97530.91;5020878;28;20500;-46
2023/01/11 14:47:07;;;;;;;4.30;1.37;;;9.90;99.90;;;12.95;58.84;97532.22;5041435;28;20488;-47
2023/01/11 14:50:18;;;;;;;1.57;1.20;;;9.90;99.90;;;12.91;58.79;97530.91;5029237;28;20480;-46
2023/01/11 14:52:47;;;;;;;1.43;0.90;;;9.90;99.90;;;12.74;59.28;97542.72;5030524;28;20046;-46
2023/01/11 14:55:24;;;;;;;1.70;1.30;;;9.70;99.90;;;12.80;59.01;97542.00;5030514;28;20057;-49
2023/01/11 14:57:55;;;;;;;1.10;1.00;;;9.70;99.90;;;12.72;59.45;97547.41;5029417;28;20038;-45
2023/01/11 15:00:22;;;;;;;1.63;1.03;;;9.70;99.90;;;12.82;58.81;97548.00;5046022;28;20046;-47
2023/01/11 15:03:11;;;;;;;1.57;1.47;;;9.80;99.90;;;12.71;59.46;97549.22;5030478;28;20045;-45
2023/01/11 15:06:00;;;;;;;1.80;1.10;;;9.70;99.90;;;12.68;59.01;97562.09;5029746;28;20416;-48
2023/01/11 15:08:44;;;;;;;1.30;1.13;;;9.70;99.90;;;12.59;58.57;97566.66;5029387;28;20045;-49
2023/01/11 15:11:39;;;;;;;1.37;1.10;;;9.70;99.90;;;12.57;58.59;97568.69;5030608;28;20045;-46
2023/01/11 15:14:29;;;;;;;2.07;1.13;;;9.60;99.90;;;12.45;58.93;97567.44;5033053;28;20050;-51
2023/01/11 15:19:50;;;;;;;1.70;0.93;;;9.40;99.90;;;12.37;59.14;97576.31;5022719;28;20042;-48
2023/01/11 15:22:29;;;;;;;1.80;1.20;;;9.40;99.90;;;12.08;60.01;97576.91;5030370;28;20046;-44
2023/01/11 15:25:05;;;;;;;1.60;1.07;;;9.30;99.90;;;12.23;59.43;97599.19;5033349;28;20049;-46
2023/01/11 15:27:37;;;;;;;1.80;1.20;;;9.30;99.90;;;12.26;59.20;97595.38;5039832;28;20443;-46
2023/01/11 15:30:26;;;;;;;2.10;1.07;;;9.40;99.90;;;12.16;59.74;97596.41;5037149;28;20054;-45
2023/01/11 15:33:15;;;;;;;6.60;2.97;;;9.30;99.90;;;12.32;59.24;97594.69;5021506;28;20485;-45
2023/01/11 15:35:55;;;;;;;2.43;1.23;;;9.40;99.90;;;12.11;59.13;97582.72;5026904;28;20045;-47
2023/01/11 15:38:41;;;;;;;2.70;1.30;;;9.30;99.90;;;12.19;59.08;97588.06;5033603;28;20037;-47
2023/01/11 15:44:51;;;;;;;3.27;1.13;;;9.30;99.90;;;12.25;58.32;97597.19;5031973;28;20037;-48
2023/01/11 15:47:37;;;;;;;4.90;1.60;;;9.40;99.90;;;12.21;58.42;97603.88;5033296;28;20042;-48
2023/01/11 15:50:53;;;;;;;1.40;1.13;;;9.30;99.90;;;12.25;58.22;97596.38;5034233;28;20046;-51
2023/01/11 15:53:49;;;;;;;5.90;1.47;;;9.30;99.90;;;12.31;57.88;97612.53;5031491;28;20045;-48
2023/01/11 15:57:17;;;;;;;6.67;1.63;;;9.30;99.90;;;12.24;58.15;97614.22;5032744;28;20038;-45
2023/01/11 16:00:29;;;;;;;6.47;2.07;;;9.30;99.90;;;12.12;58.22;97615.63;5024079;28;20049;-46
2023/01/11 16:03:32;;;;;;;4.27;1.60;;;9.20;99.90;;;12.11;58.05;97621.94;5027868;28;20042;-47
2023/01/11 16:06:32;;;;;;;3.97;1.57;;;9.20;99.90;;;12.10;58.02;97637.13;5027778;28;20137;-44
2023/01/11 16:09:55;;;;;;;5.83;1.80;;;9.20;99.90;;;12.05;57.84;97636.78;5027180;28;20524;-45
2023/01/11 16:13:20;;;;;;;2.97;1.67;;;9.20;99.90;;;12.13;57.69;97641.28;5031496;28;20401;-48
2023/01/11 16:16:16;;;;;;;3.15;1.50;;;9.20;99.90;;;12.06;57.39;97649.16;5027217;28;20041;-46
2023/01/11 16:18:51;;;;;;;6.03;2.47;;;9.10;99.90;;;12.12;57.22;97659.13;5031123;28;20049;-49
2023/01/11 16:21:33;;;;;;;3.30;1.77;;;9.10;99.90;;;11.99;57.80;97661.50;5025021;28;20052;-49
2023/01/11 16:24:16;;;;;;;4.03;1.40;;;9.00;99.90;;;11.83;57.13;97668.47;5032401;28;20076;-46
2023/01/11 16:27:02;;;;;;;6.07;1.90;;;8.90;99.90;;;11.72;57.45;97678.66;5024999;28;20049;-47
2023/01/11 16:29:33;;;;;;;3.67;1.83;;;8.90;99.90;;;11.80;57.39;97681.31;5031928;28;20056;-49
2023/01/11 16:32:26;;;;;;;2.70;1.83;;;8.90;99.90;;;11.60;57.33;97686.16;5032269;28;20053;-47
2023/01/11 16:34:54;;;;;;;4.50;1.57;;;8.80;99.90;;;11.75;57.08;97702.34;5025774;28;20484;-47
2023/01/11 16:37:58;;;;;;;2.93;1.60;;;8.80;99.90;;;11.55;57.46;97699.16;5028692;28;20052;-49
2023/01/11 16:40:35;;;;;;;4.15;2.33;;;8.80;99.90;;;11.78;56.67;97710.81;5032759;28;20037;-45
2023/01/11 16:43:14;;;;;;;2.20;1.53;;;8.80;99.90;;;11.50;57.39;97709.50;5031864;28;20037;-47
2023/01/11 16:45:44;;;;;;;8.70;1.70;;;8.70;99.90;;;11.62;57.47;97700.16;5016439;28;20041;-45
2023/01/11 16:48:21;;;;;;;4.93;2.30;;;8.70;99.90;;;11.68;56.92;97720.00;5031297;28;20061;-46
2023/01/11 16:51:08;;;;;;;3.03;1.67;;;8.70;99.90;;;11.61;57.18;97726.00;5032817;28;20524;-47
2023/01/11 16:53:41;;;;;;;8.70;2.23;;;8.70;99.90;;;11.67;57.25;97729.84;5032847;28;20505;-46
2023/01/11 16:56:18;;;;;;;5.00;1.92;;;8.70;99.90;;;11.60;57.52;97734.16;5031626;28;20056;-48
2023/01/11 16:59:15;;;;;;;3.17;1.40;;;8.70;99.90;;;11.54;57.50;97732.16;5024630;28;20034;-48
2023/01/11 17:02:04;;;;;;;5.50;2.07;;;8.70;99.90;;;11.62;57.38;97733.00;5017272;28;20045;-51
2023/01/11 17:04:36;;;;;;;7.63;2.17;;;8.70;99.90;;;11.57;57.92;97746.00;5031477;28;20476;-47
2023/01/11 17:07:23;;;;;;;1.93;1.70;;;8.70;99.90;;;11.65;57.59;97747.00;5031485;28;20048;-49
2023/01/11 17:09:51;;;;;;;4.43;2.33;;;8.80;99.90;;;11.58;57.43;97745.00;5026161;28;20046;-45
2023/01/11 17:12:23;;;;;;;5.53;2.07;;;8.70;99.90;;;11.56;57.54;97757.66;5032245;28;20061;-50
2023/01/11 17:15:22;;;;;;;6.53;2.63;;;8.70;99.90;;;11.57;57.75;97761.16;5031450;28;20041;-49
2023/01/11 17:17:50;;;;;;;15.20;6.60;;;8.70;99.90;;;11.47;58.08;97773.81;5025840;28;20052;-48
2023/01/11 17:20:27;;;;;;;8.07;3.63;;;8.60;99.90;;;11.53;58.02;97784.63;5030933;28;20050;-46
2023/01/11 17:22:57;;;;;;;2.77;1.60;;;8.60;99.90;;;11.19;57.85;97804.22;5031167;28;20057;-47
2023/01/11 17:25:34;;;;;;;3.57;1.67;;;8.60;99.90;;;10.96;57.28;97811.13;5014339;28;20053;-51
2023/01/11 17:28:18;;;;;;;4.40;1.70;;;8.40;99.90;;;10.90;57.80;97814.41;5030851;28;20523;-47
2023/01/11 17:30:49;;;;;;;2.20;1.67;;;8.40;99.90;;;10.84;58.02;97808.72;5024041;28;20041;-47
2023/01/11 17:33:32;;;;;;;2.67;1.60;;;8.30;99.90;;;10.41;60.03;97817.59;5032172;28;20496;-44
2023/01/11 17:36:01;;;;;;;3.57;1.60;;;8.10;99.90;;;10.67;59.16;97830.94;5030717;28;20493;-44
2023/01/11 17:38:29;;;;;;;3.17;1.67;;;8.00;99.90;;;10.63;59.40;97846.38;5030839;28;20045;-44
2023/01/11 17:40:59;;;;;;;3.27;1.73;;;7.90;99.90;;;10.30;60.99;97839.13;5030700;28;20045;-45
2023/01/11 17:46:23;;;;;;;5.33;1.83;;;7.70;99.90;;;10.37;60.78;97827.75;5031147;28;20120;-44
2023/01/11 17:48:59;;;;;;;3.93;2.43;;;7.70;99.90;;;10.49;60.33;97828.34;5031381;28;20041;-43
2023/01/11 17:51:32;;;;;;;4.43;1.50;;;7.70;99.90;;;10.43;60.51;97832.44;5031568;28;20057;-45
2023/01/11 17:54:00;;;;;;;1.67;1.15;;;7.70;99.90;;;10.39;60.56;97846.19;5031835;28;20045;-42
2023/01/11 17:56:40;;;;;;;4.47;2.23;;;7.60;99.90;;;10.43;60.37;97848.41;5031328;28;20048;-47
2023/01/11 17:59:20;;;;;;;3.80;1.20;;;7.60;99.90;;;10.34;60.53;97856.50;5031373;28;20045;-44
2023/01/11 18:01:51;;;;;;;5.50;1.20;;;7.60;99.90;;;10.47;60.36;97854.28;5024868;28;20409;-46
2023/01/11 18:04:21;;;;;;;3.30;1.40;;;7.70;99.90;;;10.37;60.31;97841.06;5030375;28;20616;-46
2023/01/11 18:07:06;;;;;;;3.77;1.50;;;7.60;99.90;;;10.47;60.25;97850.75;5031623;28;20044;-43
2023/01/11 18:09:49;;;;;;;4.03;2.37;;;7.70;99.90;;;10.48;60.09;97855.94;5022060;28;20496;-48
2023/01/11 18:12:20;;;;;;;2.97;1.70;;;7.60;99.90;;;10.51;60.16;97854.81;5030285;28;20497;-47
2023/01/11 18:14:59;;;;;;;7.33;1.90;;;7.70;99.90;;;10.47;60.06;97846.28;5031445;28;20408;-46
2023/01/11 18:17:37;;;;;;;5.40;1.43;;;7.70;99.90;;;10.56;59.92;97848.00;5030771;28;20523;-44
2023/01/11 18:20:14;;;;;;;4.30;1.63;;;7.70;99.90;;;10.59;59.78;97839.69;5029912;28;20504;-43
2023/01/11 18:22:57;;;;;;;7.73;3.20;;;7.70;99.90;;;10.56;59.97;97847.16;5023859;28;20053;-46
2023/01/11 18:25:30;;;;;;;7.40;2.50;;;7.60;99.90;;;10.59;59.43;97844.19;5031082;28;20049;-45
2023/01/11 18:28:16;;;;;;;4.27;2.83;;;7.60;99.90;;;10.59;59.68;97836.22;5031011;28;20412;-43
2023/01/11 18:30:52;;;;;;;5.23;2.60;;;7.60;99.90;;;10.55;59.73;97837.53;5023837;28;20041;-43
2023/01/11 18:33:26;;;;;;;6.67;2.43;;;7.60;99.90;;;10.41;60.21;97841.56;5030080;28;20045;-46
2023/01/11 18:35:58;;;;;;;3.90;1.80;;;7.50;99.90;;;10.42;60.26;97844.06;5029995;28;20045;-43
2023/01/11 18:38:32;;;;;;;6.03;2.40;;;7.50;99.90;;;10.42;60.24;97841.41;5028640;28;20049;-50
2023/01/11 18:43:54;;;;;;;5.43;2.37;;;7.50;99.90;;;10.46;59.97;97846.44;5030259;28;20039;-43
2023/01/11 18:46:22;;;;;;;5.43;2.40;;;7.40;99.90;;;10.44;60.04;97854.56;5030958;28;20292;-45
2023/01/11 18:48:49;;;;;;;5.83;2.63;;;7.40;99.90;;;10.42;59.96;97859.22;5029654;28;20033;-49
2023/01/11 18:51:30;;;;;;;7.60;2.87;;;7.40;99.90;;;10.43;59.65;97858.25;5030593;28;20523;-46
2023/01/11 18:53:57;;;;;;;3.90;2.57;;;7.50;99.90;;;10.43;59.83;97860.91;5030129;28;20052;-47
2023/01/11 18:56:25;;;;;;;8.27;2.53;;;7.50;99.90;;;10.42;59.78;97868.03;5030919;28;20041;-43
2023/01/11 18:58:52;;;;;;;7.77;2.40;;;7.50;99.90;;;10.45;59.38;97866.91;5034422;28;20041;-46
2023/01/11 19:01:20;;;;;;;10.90;3.07;;;7.50;99.90;;;10.46;59.73;97871.22;5034681;28;20488;-45
2023/01/11 19:03:48;;;;;;;5.30;3.07;;;7.50;99.90;;;10.47;59.74;97864.06;5034991;28;20041;-45
2023/01/11 19:06:18;;;;;;;5.70;2.40;;;7.50;99.90;;;10.35;59.55;97877.63;5033542;28;20049;-47
2023/01/11 19:08:45;;;;;;;4.27;1.90;;;7.40;99.90;;;10.32;59.50;97887.75;5034562;28;20038;-46
2023/01/11 19:11:15;;;;;;;6.43;1.73;;;7.40;99.90;;;10.36;59.34;97886.44;5034491;28;20046;-43
2023/01/11 19:13:42;;;;;;;4.97;2.03;;;7.40;99.90;;;10.28;59.31;97897.00;5034626;28;20029;-44
2023/01/11 19:16:14;;;;;;;8.40;2.53;;;7.30;99.90;;;10.31;59.08;97894.03;5034713;28;20053;-45
2023/01/11 19:18:41;;;;;;;6.73;2.80;;;7.30;99.90;;;10.33;59.28;97898.25;5033384;28;20037;-48
2023/01/11 19:21:10;;;;;;;4.77;2.30;;;7.40;99.90;;;10.33;59.26;97900.06;5032860;28;20049;-50
2023/01/11 19:23:38;;;;;;;8.87;3.10;;;7.40;99.90;;;10.31;59.10;97904.69;5033209;28;20041;-45
2023/01/11 19:26:06;;;;;;;5.60;2.70;;;7.30;99.90;;;10.27;59.27;97900.63;5033444;28;20052;-43
2023/01/11 19:28:34;;;;;;;5.50;2.07;;;7.30;99.90;;;10.31;58.68;97916.16;5032696;28;20052;-44
2023/01/11 19:31:06;;;;;;;7.63;4.23;;;7.30;99.90;;;10.17;58.77;97925.50;5034396;28;20045;-48
2023/01/11 19:33:34;;;;;;;4.17;1.70;;;7.30;99.90;;;10.10;59.29;97923.59;5034391;28;20053;-51
2023/01/11 19:36:08;;;;;;;5.47;1.70;;;7.30;99.90;;;10.09;59.00;97925.41;5034254;28;20393;-51
2023/01/11 19:38:37;;;;;;;5.10;1.87;;;7.20;99.90;;;10.19;58.67;97928.84;5031370;28;20056;-46
2023/01/11 19:41:07;;;;;;;5.70;2.27;;;7.20;99.90;;;10.22;58.58;97917.06;5034046;28;20393;-46
2023/01/11 19:43:35;;;;;;;6.13;1.80;;;7.30;99.90;;;10.19;58.39;97923.50;5033816;28;20046;-46
2023/01/11 19:46:03;;;;;;;5.40;2.27;;;7.30;99.90;;;10.27;58.29;97919.25;5034249;28;20052;-44
2023/01/11 19:48:33;;;;;;;4.67;2.03;;;7.30;99.90;;;10.27;58.33;97925.41;5033821;28;20412;-45
2023/01/11 19:51:10;;;;;;;4.90;1.87;;;7.30;99.90;;;10.24;58.75;97915.91;5033878;28;20072;-45
2023/01/11 19:53:37;;;;;;;5.07;2.33;;;7.30;99.90;;;10.31;58.28;97915.34;5034140;28;20068;-46
2023/01/11 19:56:07;;;;;;;6.27;2.00;;;7.30;99.90;;;10.33;58.42;97910.69;5033883;28;20053;-47
2023/01/11 19:58:36;;;;;;;5.10;1.77;;;7.30;99.90;;;10.31;58.58;97900.19;5033517;28;20504;-48
2023/01/11 20:01:09;;;;;;;7.07;2.20;;;7.30;99.90;;;10.36;58.54;97899.75;5032271;28;20049;-51
2023/01/11 20:03:41;;;;;;;6.40;2.25;;;7.30;99.90;;;10.42;57.80;97909.78;5032792;28;20033;-49
2023/01/11 20:06:09;;;;;;;5.63;1.63;;;7.30;99.90;;;10.36;57.71;97905.91;5032456;28;20053;-43
2023/01/11 20:08:39;;;;;;;10.07;2.20;;;7.30;99.90;;;10.33;57.88;97908.88;5031578;28;20148;-43
2023/01/11 20:11:13;;;;;;;4.63;2.80;;;7.30;99.90;;;10.35;57.75;97911.38;5032467;28;20041;-49
2023/01/11 20:13:42;;;;;;;3.78;2.55;;;7.30;99.90;;;10.38;57.91;97911.09;5016236;28;20041;-46
2023/01/11 20:16:12;;;;;;;5.83;2.23;;;7.30;99.90;;;10.39;57.78;97912.75;5048972;28;20512;-46
2023/01/11 20:18:41;;;;;;;5.70;2.53;;;7.30;99.90;;;10.38;57.58;97916.41;5025659;28;20072;-48
2023/01/11 20:21:10;;;;;;;4.47;2.30;;;7.30;99.90;;;10.37;57.63;97907.59;5033914;28;20060;-47
2023/01/11 20:23:37;;;;;;;8.03;2.77;;;7.30;99.90;;;10.37;57.96;97920.03;5033425;28;20045;-45
2023/01/11 20:26:06;;;;;;;4.60;2.23;;;7.30;99.90;;;10.37;57.64;97920.91;5033475;28;20416;-47
2023/01/11 20:28:34;;;;;;;4.40;2.53;;;7.30;99.90;;;10.37;57.79;97922.69;5015283;28;20038;-44
2023/01/11 20:31:05;;;;;;;4.57;2.00;;;7.30;99.90;;;10.36;57.50;97926.38;5033131;28;20042;-46
2023/01/11 20:33:33;;;;;;;3.37;1.70;;;7.30;99.90;;;10.28;57.71;97931.59;5032009;28;20041;-51
2023/01/11 20:36:09;;;;;;;8.10;3.10;;;7.20;99.90;;;10.28;57.55;97934.25;5048605;28;20428;-47
2023/01/11 20:38:36;;;;;;;5.80;2.37;;;7.20;99.90;;;10.17;57.78;97930.81;5030798;28;20041;-49
2023/01/11 20:41:45;;;;;;;5.27;1.90;;;7.20;99.90;;;10.15;57.53;97931.97;5033022;28;20056;-49
2023/01/11 20:44:01;;;;;;;9.27;2.30;;;7.10;99.90;;;10.04;57.95;97928.53;5027955;28;20041;-45
2023/01/11 20:46:29;;;;;;;12.77;5.80;;;7.10;99.90;;;10.09;57.79;97930.75;5033215;28;20041;-48
2023/01/11 20:48:57;;;;;;;21.23;9.47;;;7.20;99.90;;;10.13;57.48;97925.97;5032860;28;20048;-48
2023/01/11 20:51:24;;;;;;;17.60;9.53;;;7.20;99.90;;;10.18;57.63;97918.38;5032530;28;20049;-44
2023/01/11 20:53:52;;;;;;;13.83;6.43;;;7.20;99.90;;;10.18;57.69;97926.34;5032859;28;20044;-46
2023/01/11 20:56:19;;;;;;;9.53;5.23;;;7.20;99.90;;;10.17;57.53;97925.50;5032776;28;20050;-45
2023/01/11 20:58:49;;;;;;;9.57;4.43;;;7.20;99.90;;;10.18;57.32;97921.84;5039674;28;20045;-47
2023/01/11 21:01:23;;;;;;;7.77;3.83;;;7.20;99.90;;;10.17;57.36;97925.50;5032182;28;20045;-46
2023/01/11 21:03:56;;;;;;;;;;;7.20;99.90;;;10.12;57.64;97930.44;5032004;28;20397;-48
2023/01/11 21:06:24;;;;;;;6.97;3.37;;;7.10;99.90;;;10.13;57.33;97928.63;5015370;28;19928;-43
2023/01/11 21:08:57;;;;;;;6.27;2.33;;;7.10;99.90;;;10.11;57.16;97938.56;5030480;28;20411;-46
2023/01/11 21:11:26;;;;;;;9.73;3.33;;;7.10;99.90;;;10.09;57.44;97944.03;5032307;28;20052;-43
2023/01/11 21:13:55;;;;;;;10.83;4.33;;;7.10;99.90;;;10.11;57.27;97938.56;5031234;28;20038;-43
2023/01/11 21:16:24;;;;;;;7.80;2.93;;;7.10;99.90;;;9.96;57.56;97944.41;5032306;28;20042;-43
2023/01/11 21:18:59;;;;;;;10.87;3.33;;;7.10;99.90;;;10.03;57.24;97949.97;5032197;28;20080;-47
2023/01/11 21:21:30;;;;;;;8.10;3.60;;;7.10;99.90;;;10.08;57.11;97953.03;5031246;28;20045;-47
2023/01/11 21:24:01;;;;;;;4.83;3.20;;;7.10;99.90;;;10.12;56.87;97949.06;5032264;28;20045;-43
2023/01/11 21:26:30;;;;;;;3.70;1.93;;;7.10;99.90;;;10.13;56.69;97942.75;5032103;28;20057;-46
2023/01/11 21:29:01;;;;;;;7.47;2.40;;;7.20;99.90;;;10.15;56.96;97947.91;5031971;28;20034;-49
2023/01/11 21:31:35;;;;;;;5.97;1.80;;;7.20;99.90;;;10.19;56.88;97943.97;5030730;28;20050;-49
2023/01/11 21:34:03;;;;;;;5.53;2.50;;;7.20;99.90;;;10.19;56.51;97934.16;5032049;28;20045;-48
2023/01/11 21:36:31;;;;;;;6.10;1.93;;;7.20;99.90;;;10.19;56.31;97936.00;5031800;28;20069;-46
2023/01/11 21:39:01;;;;;;;7.87;1.70;;;7.10;99.90;;;10.18;56.43;97940.47;5030945;28;20053;-47
2023/01/11 21:44:19;;;;;;;8.87;1.90;;;7.10;99.90;;;10.16;56.27;97936.31;5031811;28;20060;-46
2023/01/11 21:46:47;;;;;;;4.67;1.90;;;7.10;99.90;;;10.15;56.10;97923.97;5031830;28;20045;-46
2023/01/11 21:49:17;;;;;;;8.23;2.17;;;7.10;99.90;;;10.08;56.13;97917.59;5029960;28;20052;-48
2023/01/11 21:51:44;;;;;;;4.87;2.20;;;7.10;99.90;;;10.12;56.28;97922.47;5031750;28;20041;-48
2023/01/11 21:54:14;;;;;;;5.53;2.00;;;7.10;99.90;;;10.08;55.86;97918.44;5031723;28;20060;-46
2023/01/11 21:56:41;;;;;;;5.27;1.70;;;7.10;99.90;;;10.08;55.63;97910.47;5024207;28;20518;-45
2023/01/11 21:59:09;;;;;;;8.43;1.67;;;7.00;99.90;;;10.05;55.97;97908.91;5031061;28;20056;-47
2023/01/11 22:01:40;;;;;;;6.10;2.13;;;7.10;99.90;;;10.08;56.03;97906.94;5031391;28;20056;-47
2023/01/11 22:04:11;;;;;;;6.37;1.67;;;7.00;99.90;;;10.08;55.83;97910.47;5031737;28;20057;-49
2023/01/11 22:06:42;;;;;;;4.43;1.80;;;7.10;99.90;;;10.08;55.38;97926.41;5025453;28;20045;-44
2023/01/11 22:09:10;;;;;;;7.97;1.60;;;7.10;99.90;;;10.10;55.57;97927.09;5030194;28;20049;-48
2023/01/11 22:11:38;;;;;;;5.30;1.47;;;7.10;99.90;;;10.11;55.45;97930.59;5013475;28;20496;-43
2023/01/11 22:14:07;;;;;;;3.77;2.30;;;7.10;99.90;;;10.12;55.14;97934.91;5028039;28;20060;-43
2023/01/11 22:16:35;;;;;;;3.97;2.13;;;7.10;99.90;;;10.09;55.12;97932.56;5030094;28;20366;-51